CKY8 weather

Public forecast

Using degrees Celsius for public forecast. Weather courtesy of forecast.io.

Closest aviation weather report (METAR) to Arkayla Springs Airport

Closest report is Calgary / Springbank Airport, 16.3 nm (30.1 km) ESE. Retrieved 2020/08/09 14:00 UTC (51 minutes ago):

CYBW 091400Z AUTO 33003KT 9SM CLR 06/04 A3012 RMK SLP224

Closest aviation forecast (TAF) to Arkayla Springs Airport

Closest forecast is Calgary / Springbank Airport, 16.3 nm (30.1 km) ESE. Retrieved 2020/08/09 12:42 UTC (2 hours ago):

TAF CYBW 091138Z 0912/0924 VRB03KT P6SM FEW080 BECMG 0912/0914 32008KT FM092000 32012KT P6SM SCT080 RMK FCST BASED ON AUTO OBS NXT FCST BY 091800Z